sensor_id;sensor_type;location;lat;lon;timestamp;P1;durP1;ratioP1;P2;durP2;ratioP2
68872;SDS011;55907;50.806;12.882;2023-07-13T00:02:01;934.1;;;804.6;;
68872;SDS011;55907;50.806;12.882;2023-07-13T00:05:02;968.2;;;832.8;;
68872;SDS011;55907;50.806;12.882;2023-07-13T00:08:04;987.8;;;860.6;;
68872;SDS011;55907;50.806;12.882;2023-07-13T00:11:05;987.2;;;878.8;;
68872;SDS011;55907;50.806;12.882;2023-07-13T00:14:07;1000.4;;;892.6;;
68872;SDS011;55907;50.806;12.882;2023-07-13T00:17:08;1006.4;;;898.3;;
68872;SDS011;55907;50.806;12.882;2023-07-13T00:20:09;973.0;;;871.0;;
68872;SDS011;55907;50.806;12.882;2023-07-13T00:23:11;946.6;;;850.7;;
68872;SDS011;55907;50.806;12.882;2023-07-13T00:26:12;903.0;;;817.4;;
68872;SDS011;55907;50.806;12.882;2023-07-13T00:29:14;869.2;;;790.3;;
68872;SDS011;55907;50.806;12.882;2023-07-13T00:32:15;821.1;;;752.7;;
68872;SDS011;55907;50.806;12.882;2023-07-13T00:35:16;758.1;;;698.7;;
68872;SDS011;55907;50.806;12.882;2023-07-13T00:38:18;670.9;;;619.2;;
68872;SDS011;55907;50.806;12.882;2023-07-13T00:41:19;554.2;;;506.2;;
68872;SDS011;55907;50.806;12.882;2023-07-13T00:44:21;454.0;;;407.4;;
68872;SDS011;55907;50.806;12.882;2023-07-13T00:47:22;436.8;;;382.6;;
68872;SDS011;55907;50.806;12.882;2023-07-13T00:50:24;462.2;;;412.3;;
68872;SDS011;55907;50.806;12.882;2023-07-13T00:53:26;486.6;;;437.7;;
68872;SDS011;55907;50.806;12.882;2023-07-13T00:56:27;500.7;;;453.6;;
68872;SDS011;55907;50.806;12.882;2023-07-13T00:59:28;516.1;;;472.7;;
68872;SDS011;55907;50.806;12.882;2023-07-13T01:02:30;554.3;;;511.7;;
68872;SDS011;55907;50.806;12.882;2023-07-13T01:05:32;545.4;;;505.7;;
68872;SDS011;55907;50.806;12.882;2023-07-13T01:08:32;520.4;;;480.7;;
68872;SDS011;55907;50.806;12.882;2023-07-13T01:11:34;524.5;;;478.9;;
68872;SDS011;55907;50.806;12.882;2023-07-13T01:14:35;575.2;;;520.7;;
68872;SDS011;55907;50.806;12.882;2023-07-13T01:17:37;709.8;;;641.7;;
68872;SDS011;55907;50.806;12.882;2023-07-13T01:20:39;823.7;;;744.0;;
68872;SDS011;55907;50.806;12.882;2023-07-13T01:23:40;910.3;;;820.3;;
68872;SDS011;55907;50.806;12.882;2023-07-13T01:26:41;953.6;;;857.1;;
68872;SDS011;55907;50.806;12.882;2023-07-13T01:29:44;963.0;;;866.2;;
68872;SDS011;55907;50.806;12.882;2023-07-13T01:32:44;996.4;;;895.2;;
68872;SDS011;55907;50.806;12.882;2023-07-13T01:35:46;995.0;;;894.5;;
68872;SDS011;55907;50.806;12.882;2023-07-13T01:38:47;950.4;;;855.8;;
68872;SDS011;55907;50.806;12.882;2023-07-13T01:41:48;900.5;;;811.4;;
68872;SDS011;55907;50.806;12.882;2023-07-13T01:44:50;841.6;;;758.6;;
68872;SDS011;55907;50.806;12.882;2023-07-13T01:47:51;781.1;;;704.7;;
68872;SDS011;55907;50.806;12.882;2023-07-13T01:50:53;753.1;;;681.3;;
68872;SDS011;55907;50.806;12.882;2023-07-13T01:53:54;709.9;;;644.1;;
68872;SDS011;55907;50.806;12.882;2023-07-13T01:56:56;672.5;;;612.1;;
68872;SDS011;55907;50.806;12.882;2023-07-13T01:59:57;675.1;;;615.5;;
68872;SDS011;55907;50.806;12.882;2023-07-13T02:02:58;682.6;;;622.9;;
68872;SDS011;55907;50.806;12.882;2023-07-13T02:06:00;691.0;;;630.2;;
68872;SDS011;55907;50.806;12.882;2023-07-13T02:09:01;721.6;;;659.1;;
68872;SDS011;55907;50.806;12.882;2023-07-13T02:12:03;731.7;;;668.7;;
68872;SDS011;55907;50.806;12.882;2023-07-13T02:15:05;755.4;;;691.1;;
68872;SDS011;55907;50.806;12.882;2023-07-13T02:18:06;776.8;;;711.0;;
68872;SDS011;55907;50.806;12.882;2023-07-13T02:21:07;813.2;;;744.2;;
68872;SDS011;55907;50.806;12.882;2023-07-13T02:24:09;852.7;;;781.8;;
68872;SDS011;55907;50.806;12.882;2023-07-13T02:27:10;896.8;;;823.2;;
68872;SDS011;55907;50.806;12.882;2023-07-13T02:30:12;942.6;;;865.2;;
68872;SDS011;55907;50.806;12.882;2023-07-13T02:33:13;965.2;;;886.5;;
68872;SDS011;55907;50.806;12.882;2023-07-13T02:36:15;978.7;;;897.7;;
68872;SDS011;55907;50.806;12.882;2023-07-13T02:39:16;958.4;;;877.5;;
68872;SDS011;55907;50.806;12.882;2023-07-13T02:42:17;960.0;;;875.7;;
68872;SDS011;55907;50.806;12.882;2023-07-13T02:45:19;944.0;;;857.3;;
68872;SDS011;55907;50.806;12.882;2023-07-13T02:48:20;917.1;;;829.0;;
68872;SDS011;55907;50.806;12.882;2023-07-13T02:51:22;907.4;;;817.7;;
68872;SDS011;55907;50.806;12.882;2023-07-13T02:54:23;894.9;;;805.5;;
68872;SDS011;55907;50.806;12.882;2023-07-13T02:57:25;875.0;;;786.8;;
68872;SDS011;55907;50.806;12.882;2023-07-13T03:00:26;865.0;;;775.4;;
68872;SDS011;55907;50.806;12.882;2023-07-13T03:03:27;841.4;;;752.8;;
68872;SDS011;55907;50.806;12.882;2023-07-13T03:06:30;834.9;;;746.2;;
68872;SDS011;55907;50.806;12.882;2023-07-13T03:09:31;815.0;;;728.2;;
68872;SDS011;55907;50.806;12.882;2023-07-13T03:12:32;799.2;;;714.5;;
68872;SDS011;55907;50.806;12.882;2023-07-13T03:15:33;789.5;;;708.2;;
68872;SDS011;55907;50.806;12.882;2023-07-13T03:18:35;782.3;;;705.2;;
68872;SDS011;55907;50.806;12.882;2023-07-13T03:21:36;792.8;;;716.9;;
68872;SDS011;55907;50.806;12.882;2023-07-13T03:24:38;811.5;;;736.5;;
68872;SDS011;55907;50.806;12.882;2023-07-13T03:27:39;827.4;;;752.5;;
68872;SDS011;55907;50.806;12.882;2023-07-13T03:30:41;838.3;;;761.9;;
68872;SDS011;55907;50.806;12.882;2023-07-13T03:33:42;857.0;;;777.7;;
68872;SDS011;55907;50.806;12.882;2023-07-13T03:36:43;861.0;;;779.4;;
68872;SDS011;55907;50.806;12.882;2023-07-13T03:39:45;896.3;;;811.2;;
68872;SDS011;55907;50.806;12.882;2023-07-13T03:42:46;905.2;;;819.0;;
68872;SDS011;55907;50.806;12.882;2023-07-13T03:45:48;951.4;;;860.6;;
68872;SDS011;55907;50.806;12.882;2023-07-13T03:48:49;987.0;;;891.7;;
68872;SDS011;55907;50.806;12.882;2023-07-13T03:51:51;1023.6;;;923.9;;
68872;SDS011;55907;50.806;12.882;2023-07-13T03:54:52;1061.3;;;957.7;;
68872;SDS011;55907;50.806;12.882;2023-07-13T03:57:54;1073.8;;;970.0;;
68872;SDS011;55907;50.806;12.882;2023-07-13T04:00:55;1074.4;;;968.6;;
68872;SDS011;55907;50.806;12.882;2023-07-13T04:03:56;1066.7;;;958.2;;
68872;SDS011;55907;50.806;12.882;2023-07-13T04:06:58;1071.2;;;960.6;;
68872;SDS011;55907;50.806;12.882;2023-07-13T04:09:59;1067.6;;;956.5;;
68872;SDS011;55907;50.806;12.882;2023-07-13T04:13:01;1066.2;;;953.7;;
68872;SDS011;55907;50.806;12.882;2023-07-13T04:16:02;1065.1;;;950.8;;
68872;SDS011;55907;50.806;12.882;2023-07-13T04:19:04;1070.2;;;954.4;;
68872;SDS011;55907;50.806;12.882;2023-07-13T04:22:05;1067.4;;;951.5;;
68872;SDS011;55907;50.806;12.882;2023-07-13T04:25:07;1053.7;;;939.4;;
68872;SDS011;55907;50.806;12.882;2023-07-13T04:28:08;1027.3;;;916.2;;
68872;SDS011;55907;50.806;12.882;2023-07-13T04:31:09;1007.2;;;898.0;;
68872;SDS011;55907;50.806;12.882;2023-07-13T04:34:11;987.8;;;881.5;;
68872;SDS011;55907;50.806;12.882;2023-07-13T04:37:12;988.0;;;883.9;;
68872;SDS011;55907;50.806;12.882;2023-07-13T04:40:14;947.6;;;851.3;;
68872;SDS011;55907;50.806;12.882;2023-07-13T04:43:15;870.4;;;782.1;;
68872;SDS011;55907;50.806;12.882;2023-07-13T04:46:17;894.2;;;799.4;;
68872;SDS011;55907;50.806;12.882;2023-07-13T04:49:18;1018.3;;;907.8;;
68872;SDS011;55907;50.806;12.882;2023-07-13T04:52:19;1119.0;;;998.8;;
68872;SDS011;55907;50.806;12.882;2023-07-13T04:55:21;1122.0;;;991.2;;
68872;SDS011;55907;50.806;12.882;2023-07-13T04:58:23;1107.6;;;931.4;;
68872;SDS011;55907;50.806;12.882;2023-07-13T05:01:24;1108.2;;;909.0;;
68872;SDS011;55907;50.806;12.882;2023-07-13T05:04:25;1177.6;;;937.1;;
68872;SDS011;55907;50.806;12.882;2023-07-13T05:07:26;1086.5;;;881.5;;
68872;SDS011;55907;50.806;12.882;2023-07-13T05:10:28;1001.6;;;896.6;;
68872;SDS011;55907;50.806;12.882;2023-07-13T05:13:29;1044.6;;;957.3;;
68872;SDS011;55907;50.806;12.882;2023-07-13T05:16:31;1135.6;;;999.9;;
68872;SDS011;55907;50.806;12.882;2023-07-13T05:19:32;1219.5;;;999.9;;
68872;SDS011;55907;50.806;12.882;2023-07-13T05:22:33;1233.5;;;999.9;;
68872;SDS011;55907;50.806;12.882;2023-07-13T05:25:35;1245.1;;;999.9;;
68872;SDS011;55907;50.806;12.882;2023-07-13T05:28:36;1185.2;;;999.9;;
68872;SDS011;55907;50.806;12.882;2023-07-13T05:31:37;1150.1;;;999.9;;
68872;SDS011;55907;50.806;12.882;2023-07-13T05:34:39;1139.4;;;999.9;;
68872;SDS011;55907;50.806;12.882;2023-07-13T05:37:40;1204.1;;;992.1;;
68872;SDS011;55907;50.806;12.882;2023-07-13T05:40:42;1241.5;;;979.0;;
68872;SDS011;55907;50.806;12.882;2023-07-13T05:43:43;1192.9;;;946.7;;
68872;SDS011;55907;50.806;12.882;2023-07-13T05:46:44;1137.6;;;911.5;;
68872;SDS011;55907;50.806;12.882;2023-07-13T05:49:46;1070.4;;;880.4;;
68872;SDS011;55907;50.806;12.882;2023-07-13T05:52:47;1058.9;;;833.7;;
68872;SDS011;55907;50.806;12.882;2023-07-13T05:55:48;1024.7;;;811.9;;
68872;SDS011;55907;50.806;12.882;2023-07-13T05:58:50;962.0;;;790.6;;
68872;SDS011;55907;50.806;12.882;2023-07-13T06:01:51;906.1;;;769.1;;
68872;SDS011;55907;50.806;12.882;2023-07-13T06:04:53;880.8;;;759.6;;
68872;SDS011;55907;50.806;12.882;2023-07-13T06:07:54;874.3;;;766.7;;
68872;SDS011;55907;50.806;12.882;2023-07-13T06:11:01;818.7;;;735.5;;
68872;SDS011;55907;50.806;12.882;2023-07-13T06:13:57;767.1;;;695.9;;
68872;SDS011;55907;50.806;12.882;2023-07-13T06:16:58;733.8;;;669.7;;
68872;SDS011;55907;50.806;12.882;2023-07-13T06:19:59;719.0;;;657.7;;
68872;SDS011;55907;50.806;12.882;2023-07-13T06:23:01;725.7;;;663.3;;
68872;SDS011;55907;50.806;12.882;2023-07-13T06:26:02;792.6;;;723.2;;
68872;SDS011;55907;50.806;12.882;2023-07-13T06:29:04;806.3;;;735.7;;
68872;SDS011;55907;50.806;12.882;2023-07-13T06:32:05;798.6;;;730.4;;
68872;SDS011;55907;50.806;12.882;2023-07-13T06:35:06;782.6;;;715.9;;
68872;SDS011;55907;50.806;12.882;2023-07-13T06:38:08;785.7;;;718.7;;
68872;SDS011;55907;50.806;12.882;2023-07-13T06:41:09;793.6;;;725.7;;
68872;SDS011;55907;50.806;12.882;2023-07-13T06:44:10;803.8;;;734.5;;
68872;SDS011;55907;50.806;12.882;2023-07-13T06:47:12;805.2;;;735.6;;
68872;SDS011;55907;50.806;12.882;2023-07-13T06:50:13;813.2;;;743.4;;
68872;SDS011;55907;50.806;12.882;2023-07-13T06:53:15;809.9;;;737.5;;
68872;SDS011;55907;50.806;12.882;2023-07-13T06:56:16;832.9;;;759.2;;
68872;SDS011;55907;50.806;12.882;2023-07-13T06:59:18;835.8;;;759.6;;
68872;SDS011;55907;50.806;12.882;2023-07-13T07:02:19;833.7;;;753.5;;
68872;SDS011;55907;50.806;12.882;2023-07-13T07:05:20;883.5;;;793.9;;
68872;SDS011;55907;50.806;12.882;2023-07-13T07:08:22;870.6;;;775.2;;
68872;SDS011;55907;50.806;12.882;2023-07-13T07:11:24;999.8;;;842.2;;
68872;SDS011;55907;50.806;12.882;2023-07-13T07:14:24;1138.8;;;919.4;;
68872;SDS011;55907;50.806;12.882;2023-07-13T07:17:26;1215.1;;;935.2;;
68872;SDS011;55907;50.806;12.882;2023-07-13T07:20:27;1259.1;;;934.5;;
68872;SDS011;55907;50.806;12.882;2023-07-13T07:23:28;1257.4;;;928.2;;
68872;SDS011;55907;50.806;12.882;2023-07-13T07:26:30;1268.3;;;930.4;;
68872;SDS011;55907;50.806;12.882;2023-07-13T07:29:31;1242.0;;;931.0;;
68872;SDS011;55907;50.806;12.882;2023-07-13T07:32:32;1172.2;;;940.8;;
68872;SDS011;55907;50.806;12.882;2023-07-13T07:35:34;1171.3;;;965.3;;
68872;SDS011;55907;50.806;12.882;2023-07-13T07:38:35;1165.8;;;973.8;;
68872;SDS011;55907;50.806;12.882;2023-07-13T07:41:37;1158.6;;;981.7;;
68872;SDS011;55907;50.806;12.882;2023-07-13T07:44:39;1195.5;;;999.9;;
68872;SDS011;55907;50.806;12.882;2023-07-13T07:47:39;1155.9;;;999.9;;
68872;SDS011;55907;50.806;12.882;2023-07-13T07:50:41;1148.7;;;999.9;;
68872;SDS011;55907;50.806;12.882;2023-07-13T07:53:42;1179.9;;;999.9;;
68872;SDS011;55907;50.806;12.882;2023-07-13T07:56:43;1181.6;;;999.9;;
68872;SDS011;55907;50.806;12.882;2023-07-13T07:59:45;1177.5;;;999.9;;
68872;SDS011;55907;50.806;12.882;2023-07-13T08:02:46;1209.8;;;999.9;;
68872;SDS011;55907;50.806;12.882;2023-07-13T08:05:48;1244.5;;;999.9;;
68872;SDS011;55907;50.806;12.882;2023-07-13T08:08:49;1262.9;;;999.9;;
68872;SDS011;55907;50.806;12.882;2023-07-13T08:11:50;1265.8;;;999.9;;
68872;SDS011;55907;50.806;12.882;2023-07-13T08:14:52;1250.8;;;999.9;;
68872;SDS011;55907;50.806;12.882;2023-07-13T08:17:53;1205.6;;;999.9;;
68872;SDS011;55907;50.806;12.882;2023-07-13T08:20:54;1156.8;;;999.9;;
68872;SDS011;55907;50.806;12.882;2023-07-13T08:23:56;1105.4;;;999.6;;
68872;SDS011;55907;50.806;12.882;2023-07-13T08:26:57;1086.0;;;985.0;;
68872;SDS011;55907;50.806;12.882;2023-07-13T08:29:58;1092.5;;;991.5;;
68872;SDS011;55907;50.806;12.882;2023-07-13T08:33:00;1108.7;;;999.9;;
68872;SDS011;55907;50.806;12.882;2023-07-13T08:36:01;1119.3;;;999.9;;
68872;SDS011;55907;50.806;12.882;2023-07-13T08:39:02;1144.3;;;999.9;;
68872;SDS011;55907;50.806;12.882;2023-07-13T08:42:05;1160.3;;;999.9;;
68872;SDS011;55907;50.806;12.882;2023-07-13T08:45:08;1242.3;;;999.9;;
68872;SDS011;55907;50.806;12.882;2023-07-13T08:48:08;1277.7;;;999.9;;
68872;SDS011;55907;50.806;12.882;2023-07-13T08:51:11;1472.4;;;999.9;;
68872;SDS011;55907;50.806;12.882;2023-07-13T08:54:14;1408.2;;;982.1;;
68872;SDS011;55907;50.806;12.882;2023-07-13T08:57:13;1155.2;;;962.5;;
68872;SDS011;55907;50.806;12.882;2023-07-13T09:00:12;1734.3;;;999.9;;
68872;SDS011;55907;50.806;12.882;2023-07-13T09:03:16;1987.7;;;999.9;;
68872;SDS011;55907;50.806;12.882;2023-07-13T09:06:15;1999.9;;;999.9;;
68872;SDS011;55907;50.806;12.882;2023-07-13T09:36:29;1978.7;;;999.9;;
68872;SDS011;55907;50.806;12.882;2023-07-13T09:39:30;1913.1;;;999.9;;
68872;SDS011;55907;50.806;12.882;2023-07-13T09:42:31;1847.2;;;999.9;;
68872;SDS011;55907;50.806;12.882;2023-07-13T09:45:33;1752.3;;;999.9;;
68872;SDS011;55907;50.806;12.882;2023-07-13T09:48:34;1658.2;;;990.3;;
68872;SDS011;55907;50.806;12.882;2023-07-13T09:51:35;1615.4;;;991.0;;
68872;SDS011;55907;50.806;12.882;2023-07-13T09:54:36;1594.6;;;976.6;;
68872;SDS011;55907;50.806;12.882;2023-07-13T09:57:37;1632.9;;;964.5;;
68872;SDS011;55907;50.806;12.882;2023-07-13T10:00:39;1674.9;;;957.2;;
68872;SDS011;55907;50.806;12.882;2023-07-13T10:03:42;1738.3;;;961.0;;
68872;SDS011;55907;50.806;12.882;2023-07-13T10:06:41;1755.0;;;958.6;;
68872;SDS011;55907;50.806;12.882;2023-07-13T10:09:43;1766.0;;;966.4;;
68872;SDS011;55907;50.806;12.882;2023-07-13T10:12:44;1729.7;;;968.4;;
68872;SDS011;55907;50.806;12.882;2023-07-13T10:15:46;1677.9;;;964.5;;
68872;SDS011;55907;50.806;12.882;2023-07-13T10:18:48;1688.4;;;952.2;;
68872;SDS011;55907;50.806;12.882;2023-07-13T10:21:50;1763.9;;;963.1;;
68872;SDS011;55907;50.806;12.882;2023-07-13T10:24:50;1875.8;;;984.0;;
68872;SDS011;55907;50.806;12.882;2023-07-13T10:27:52;1908.6;;;999.9;;
68872;SDS011;55907;50.806;12.882;2023-07-13T10:30:53;1904.2;;;999.9;;
68872;SDS011;55907;50.806;12.882;2023-07-13T10:33:54;1847.9;;;999.9;;
68872;SDS011;55907;50.806;12.882;2023-07-13T10:36:55;1837.2;;;999.9;;
68872;SDS011;55907;50.806;12.882;2023-07-13T10:39:57;1815.6;;;999.9;;
68872;SDS011;55907;50.806;12.882;2023-07-13T10:42:58;1695.9;;;999.9;;
68872;SDS011;55907;50.806;12.882;2023-07-13T10:45:59;1577.6;;;999.9;;
68872;SDS011;55907;50.806;12.882;2023-07-13T10:49:01;1535.2;;;999.9;;
68872;SDS011;55907;50.806;12.882;2023-07-13T10:52:02;1495.1;;;999.9;;
68872;SDS011;55907;50.806;12.882;2023-07-13T10:55:04;1491.2;;;999.9;;
68872;SDS011;55907;50.806;12.882;2023-07-13T10:58:13;1444.6;;;999.9;;
68872;SDS011;55907;50.806;12.882;2023-07-13T11:01:08;1405.0;;;999.9;;
68872;SDS011;55907;50.806;12.882;2023-07-13T11:04:08;1357.3;;;980.1;;
68872;SDS011;55907;50.806;12.882;2023-07-13T11:07:11;1337.5;;;985.7;;
68872;SDS011;55907;50.806;12.882;2023-07-13T11:10:30;1324.2;;;985.8;;
68872;SDS011;55907;50.806;12.882;2023-07-13T11:16:13;1329.5;;;988.8;;
68872;SDS011;55907;50.806;12.882;2023-07-13T11:22:16;1299.1;;;964.9;;
68872;SDS011;55907;50.806;12.882;2023-07-13T11:25:21;1298.2;;;967.9;;
68872;SDS011;55907;50.806;12.882;2023-07-13T11:28:22;1293.1;;;964.2;;
68872;SDS011;55907;50.806;12.882;2023-07-13T11:31:19;1295.3;;;961.1;;
68872;SDS011;55907;50.806;12.882;2023-07-13T11:34:21;1291.6;;;961.3;;
68872;SDS011;55907;50.806;12.882;2023-07-13T11:37:22;1282.4;;;961.6;;
68872;SDS011;55907;50.806;12.882;2023-07-13T11:40:24;1288.1;;;963.4;;
68872;SDS011;55907;50.806;12.882;2023-07-13T11:43:25;1312.0;;;970.0;;
68872;SDS011;55907;50.806;12.882;2023-07-13T11:46:27;1291.7;;;967.7;;
68872;SDS011;55907;50.806;12.882;2023-07-13T11:49:29;1286.0;;;964.7;;
68872;SDS011;55907;50.806;12.882;2023-07-13T11:52:30;1316.1;;;985.5;;
68872;SDS011;55907;50.806;12.882;2023-07-13T11:55:30;1310.0;;;999.9;;
68872;SDS011;55907;50.806;12.882;2023-07-13T11:58:32;1311.7;;;999.9;;
68872;SDS011;55907;50.806;12.882;2023-07-13T12:01:33;1314.8;;;999.9;;
68872;SDS011;55907;50.806;12.882;2023-07-13T12:04:34;1336.8;;;999.9;;
68872;SDS011;55907;50.806;12.882;2023-07-13T12:07:36;1399.8;;;999.9;;
68872;SDS011;55907;50.806;12.882;2023-07-13T12:10:37;1310.6;;;987.6;;
68872;SDS011;55907;50.806;12.882;2023-07-13T12:13:38;1350.1;;;981.6;;
68872;SDS011;55907;50.806;12.882;2023-07-13T12:16:40;1364.5;;;988.4;;
68872;SDS011;55907;50.806;12.882;2023-07-13T12:19:41;1405.3;;;999.5;;
68872;SDS011;55907;50.806;12.882;2023-07-13T12:22:45;1451.9;;;999.9;;
68872;SDS011;55907;50.806;12.882;2023-07-13T12:25:44;1424.8;;;999.9;;
68872;SDS011;55907;50.806;12.882;2023-07-13T12:28:46;1433.0;;;985.4;;
68872;SDS011;55907;50.806;12.882;2023-07-13T12:31:47;1494.1;;;988.0;;
68872;SDS011;55907;50.806;12.882;2023-07-13T12:34:52;1532.9;;;993.7;;
68872;SDS011;55907;50.806;12.882;2023-07-13T12:37:50;1530.9;;;999.9;;
68872;SDS011;55907;50.806;12.882;2023-07-13T12:40:51;1603.6;;;999.9;;
68872;SDS011;55907;50.806;12.882;2023-07-13T12:43:52;1634.8;;;997.2;;
68872;SDS011;55907;50.806;12.882;2023-07-13T12:46:55;1663.7;;;999.9;;
68872;SDS011;55907;50.806;12.882;2023-07-13T12:49:56;1650.4;;;999.9;;
68872;SDS011;55907;50.806;12.882;2023-07-13T12:52:56;1665.3;;;999.9;;
68872;SDS011;55907;50.806;12.882;2023-07-13T12:55:58;1023.6;;;916.7;;
68872;SDS011;55907;50.806;12.882;2023-07-13T12:59:00;1283.4;;;999.9;;
68872;SDS011;55907;50.806;12.882;2023-07-13T13:02:00;1205.4;;;999.9;;
68872;SDS011;55907;50.806;12.882;2023-07-13T13:05:01;1101.3;;;999.9;;
68872;SDS011;55907;50.806;12.882;2023-07-13T13:08:03;1143.1;;;999.9;;
68872;SDS011;55907;50.806;12.882;2023-07-13T13:11:04;1170.1;;;999.9;;
68872;SDS011;55907;50.806;12.882;2023-07-13T13:14:05;1116.0;;;999.9;;
68872;SDS011;55907;50.806;12.882;2023-07-13T13:17:11;1124.5;;;999.9;;
68872;SDS011;55907;50.806;12.882;2023-07-13T13:20:13;1092.7;;;987.5;;
68872;SDS011;55907;50.806;12.882;2023-07-13T13:23:11;1079.2;;;972.4;;
68872;SDS011;55907;50.806;12.882;2023-07-13T13:26:11;1050.3;;;944.4;;
68872;SDS011;55907;50.806;12.882;2023-07-13T13:29:13;1017.1;;;914.1;;
68872;SDS011;55907;50.806;12.882;2023-07-13T13:32:14;998.1;;;896.8;;
68872;SDS011;55907;50.806;12.882;2023-07-13T13:35:15;982.9;;;885.2;;
68872;SDS011;55907;50.806;12.882;2023-07-13T13:38:17;961.6;;;867.8;;
68872;SDS011;55907;50.806;12.882;2023-07-13T13:41:17;954.6;;;862.5;;
68872;SDS011;55907;50.806;12.882;2023-07-13T13:44:19;952.9;;;860.5;;
68872;SDS011;55907;50.806;12.882;2023-07-13T13:47:23;982.7;;;887.8;;
68872;SDS011;55907;50.806;12.882;2023-07-13T13:50:22;1035.3;;;934.4;;
68872;SDS011;55907;50.806;12.882;2023-07-13T13:53:23;1088.3;;;978.8;;
68872;SDS011;55907;50.806;12.882;2023-07-13T13:56:24;1062.4;;;956.0;;
68872;SDS011;55907;50.806;12.882;2023-07-13T13:59:26;1017.9;;;913.0;;
68872;SDS011;55907;50.806;12.882;2023-07-13T14:02:27;966.7;;;862.9;;
68872;SDS011;55907;50.806;12.882;2023-07-13T14:05:28;972.5;;;862.7;;
68872;SDS011;55907;50.806;12.882;2023-07-13T14:08:30;992.6;;;858.7;;
68872;SDS011;55907;50.806;12.882;2023-07-13T14:11:31;997.3;;;864.2;;
68872;SDS011;55907;50.806;12.882;2023-07-13T14:14:32;977.8;;;866.1;;
68872;SDS011;55907;50.806;12.882;2023-07-13T14:17:34;972.1;;;864.9;;
68872;SDS011;55907;50.806;12.882;2023-07-13T14:20:35;955.2;;;850.3;;
68872;SDS011;55907;50.806;12.882;2023-07-13T14:23:36;955.0;;;850.4;;
68872;SDS011;55907;50.806;12.882;2023-07-13T14:26:39;958.8;;;855.5;;
68872;SDS011;55907;50.806;12.882;2023-07-13T14:29:39;937.3;;;839.7;;
68872;SDS011;55907;50.806;12.882;2023-07-13T14:32:40;938.5;;;841.2;;
68872;SDS011;55907;50.806;12.882;2023-07-13T14:35:42;957.0;;;859.1;;
68872;SDS011;55907;50.806;12.882;2023-07-13T14:38:44;948.2;;;853.9;;
68872;SDS011;55907;50.806;12.882;2023-07-13T14:41:45;944.6;;;853.7;;
68872;SDS011;55907;50.806;12.882;2023-07-13T14:44:46;947.9;;;858.5;;
68872;SDS011;55907;50.806;12.882;2023-07-13T14:47:47;943.8;;;855.5;;
68872;SDS011;55907;50.806;12.882;2023-07-13T14:50:50;934.9;;;846.5;;
68872;SDS011;55907;50.806;12.882;2023-07-13T14:53:50;938.0;;;847.8;;
68872;SDS011;55907;50.806;12.882;2023-07-13T14:56:51;933.8;;;846.2;;
68872;SDS011;55907;50.806;12.882;2023-07-13T14:59:53;939.9;;;852.9;;
68872;SDS011;55907;50.806;12.882;2023-07-13T15:02:54;952.7;;;865.1;;
68872;SDS011;55907;50.806;12.882;2023-07-13T15:05:55;993.8;;;902.3;;
68872;SDS011;55907;50.806;12.882;2023-07-13T15:08:57;1016.4;;;923.0;;
68872;SDS011;55907;50.806;12.882;2023-07-13T15:11:58;1035.9;;;937.8;;
68872;SDS011;55907;50.806;12.882;2023-07-13T15:14:59;1013.3;;;917.5;;
68872;SDS011;55907;50.806;12.882;2023-07-13T15:18:01;990.9;;;895.3;;
68872;SDS011;55907;50.806;12.882;2023-07-13T15:21:02;967.7;;;875.0;;
68872;SDS011;55907;50.806;12.882;2023-07-13T15:24:04;952.0;;;862.9;;
68872;SDS011;55907;50.806;12.882;2023-07-13T15:27:07;952.1;;;864.9;;
68872;SDS011;55907;50.806;12.882;2023-07-13T15:30:07;974.5;;;887.3;;
68872;SDS011;55907;50.806;12.882;2023-07-13T15:33:10;1017.8;;;926.8;;
68872;SDS011;55907;50.806;12.882;2023-07-13T15:36:09;1061.7;;;964.2;;
68872;SDS011;55907;50.806;12.882;2023-07-13T15:39:13;1083.7;;;980.9;;
68872;SDS011;55907;50.806;12.882;2023-07-13T15:42:13;1104.4;;;995.0;;
68872;SDS011;55907;50.806;12.882;2023-07-13T15:45:15;1102.6;;;991.1;;
68872;SDS011;55907;50.806;12.882;2023-07-13T15:48:15;1094.0;;;982.1;;
68872;SDS011;55907;50.806;12.882;2023-07-13T15:51:18;1083.4;;;969.9;;
68872;SDS011;55907;50.806;12.882;2023-07-13T15:54:18;1084.4;;;971.7;;
68872;SDS011;55907;50.806;12.882;2023-07-13T15:57:18;1087.8;;;978.5;;
68872;SDS011;55907;50.806;12.882;2023-07-13T16:00:21;1108.4;;;998.9;;
68872;SDS011;55907;50.806;12.882;2023-07-13T16:03:21;1128.8;;;999.9;;
68872;SDS011;55907;50.806;12.882;2023-07-13T16:06:24;1140.1;;;999.9;;
68872;SDS011;55907;50.806;12.882;2023-07-13T16:09:24;1151.0;;;999.9;;
68872;SDS011;55907;50.806;12.882;2023-07-13T16:12:25;1168.5;;;999.9;;
68872;SDS011;55907;50.806;12.882;2023-07-13T16:15:27;1183.5;;;999.9;;
68872;SDS011;55907;50.806;12.882;2023-07-13T16:18:28;1219.4;;;999.9;;
68872;SDS011;55907;50.806;12.882;2023-07-13T16:21:30;1230.8;;;999.9;;
68872;SDS011;55907;50.806;12.882;2023-07-13T16:24:31;1223.6;;;999.9;;
68872;SDS011;55907;50.806;12.882;2023-07-13T16:27:32;1220.0;;;999.9;;
68872;SDS011;55907;50.806;12.882;2023-07-13T16:30:33;1191.4;;;999.9;;
68872;SDS011;55907;50.806;12.882;2023-07-13T16:33:35;1188.2;;;999.9;;
68872;SDS011;55907;50.806;12.882;2023-07-13T16:36:36;1225.2;;;999.9;;
68872;SDS011;55907;50.806;12.882;2023-07-13T16:39:37;1233.9;;;999.9;;
68872;SDS011;55907;50.806;12.882;2023-07-13T16:42:39;1246.6;;;999.9;;
68872;SDS011;55907;50.806;12.882;2023-07-13T16:45:40;1286.8;;;999.9;;
68872;SDS011;55907;50.806;12.882;2023-07-13T16:48:42;1332.9;;;999.9;;
68872;SDS011;55907;50.806;12.882;2023-07-13T16:51:43;1370.6;;;999.9;;
68872;SDS011;55907;50.806;12.882;2023-07-13T16:54:45;1367.0;;;999.9;;
68872;SDS011;55907;50.806;12.882;2023-07-13T16:57:46;1391.9;;;999.9;;
68872;SDS011;55907;50.806;12.882;2023-07-13T17:00:47;1387.3;;;999.9;;
68872;SDS011;55907;50.806;12.882;2023-07-13T17:03:49;1388.3;;;999.9;;
68872;SDS011;55907;50.806;12.882;2023-07-13T17:06:50;1370.3;;;999.9;;
68872;SDS011;55907;50.806;12.882;2023-07-13T17:09:51;1357.1;;;999.9;;
68872;SDS011;55907;50.806;12.882;2023-07-13T17:12:56;1340.7;;;999.9;;
68872;SDS011;55907;50.806;12.882;2023-07-13T17:15:54;1348.5;;;999.9;;
68872;SDS011;55907;50.806;12.882;2023-07-13T17:18:55;1337.5;;;999.9;;
68872;SDS011;55907;50.806;12.882;2023-07-13T17:21:57;1338.2;;;999.9;;
68872;SDS011;55907;50.806;12.882;2023-07-13T17:24:58;1352.5;;;999.9;;
68872;SDS011;55907;50.806;12.882;2023-07-13T17:28:00;1357.9;;;999.9;;
68872;SDS011;55907;50.806;12.882;2023-07-13T17:31:01;1381.7;;;999.9;;
68872;SDS011;55907;50.806;12.882;2023-07-13T17:34:02;1413.1;;;999.9;;
68872;SDS011;55907;50.806;12.882;2023-07-13T17:37:04;1418.0;;;999.9;;
68872;SDS011;55907;50.806;12.882;2023-07-13T17:40:08;1426.9;;;999.9;;
68872;SDS011;55907;50.806;12.882;2023-07-13T17:43:06;1476.5;;;999.9;;
68872;SDS011;55907;50.806;12.882;2023-07-13T17:46:10;1481.8;;;999.9;;
68872;SDS011;55907;50.806;12.882;2023-07-13T17:49:13;1496.6;;;999.9;;